| time (UTC) | temp F | wind direction | speed MPH | gust MPH | rain 1hr in | rain 24hr in | rain mn in | humidity % | barometer mb |
| 20260510125404 | 73 | 236 | 2.0 | 8.0 | 0.00 | 0.00 | 0.00 | 58 | 1009.3 |
| 20260510124713 | 72 | 221 | 3.0 | 9.0 | 0.00 | 0.00 | 0.00 | 60 | 1009.4 |
| 20260510123603 | 72 | 203 | 3.0 | 8.0 | 0.00 | 0.00 | 0.00 | 62 | 1009.8 |
| 20260510122703 | 72 | 111 | 3.0 | 11.0 | 0.00 | 0.00 | 0.00 | 62 | 1009.9 |
| 20260510121803 | 74 | 220 | 4.0 | 8.0 | 0.00 | 0.00 | 0.00 | 60 | 1009.8 |
| 20260510120904 | 75 | 146 | 3.0 | 9.0 | 0.00 | 0.00 | 0.00 | 57 | 1010.1 |
| 20260510120215 | 76 | 230 | 4.0 | 11.0 | 0.00 | 0.00 | 0.00 | 56 | 1010.0 |
| 20260510115403 | 76 | 200 | 4.0 | 11.0 | 0.00 | 0.00 | 0.00 | 55 | 1010.1 |
| 20260510114503 | 76 | 118 | 3.0 | 9.0 | 0.00 | 0.00 | 0.00 | 55 | 1010.2 |
| 20260510113816 | 76 | 129 | 4.0 | 9.0 | 0.00 | 0.00 | 0.00 | 53 | 1010.1 |
| 20260510112703 | 76 | 125 | 4.0 | 11.0 | 0.00 | 0.00 | 0.00 | 50 | 1010.0 |
| 20260510112016 | 76 | 226 | 4.0 | 11.0 | 0.00 | 0.00 | 0.00 | 51 | 1010.0 |
| 20260510110904 | 77 | 232 | 3.0 | 11.0 | 0.00 | 0.00 | 0.00 | 50 | 1009.8 |
| 20260510110004 | 77 | 189 | 3.0 | 9.0 | 0.00 | 0.00 | 0.00 | 50 | 1009.8 |
| 20260510105403 | 76 | 123 | 2.0 | 9.0 | 0.00 | 0.00 | 0.00 | 52 | 1009.8 |
| 20260510104503 | 75 | 213 | 4.0 | 11.0 | 0.00 | 0.00 | 0.00 | 54 | 1009.8 |
| 20260510103603 | 74 | 226 | 4.0 | 11.0 | 0.00 | 0.00 | 0.00 | 56 | 1010.0 |
| 20260510102914 | 75 | 144 | 2.0 | 8.0 | 0.00 | 0.00 | 0.00 | 54 | 1010.3 |
| 20260510101804 | 76 | 135 | 2.0 | 7.0 | 0.00 | 0.00 | 0.00 | 54 | 1010.2 |
| 20260510101114 | 76 | 111 | 3.0 | 6.0 | 0.00 | 0.00 | 0.00 | 53 | 1010.1 |
| 20260510100216 | 77 | 181 | 2.0 | 9.0 | 0.00 | 0.00 | 0.00 | 52 | 1010.5 |
| 20260510095618 | 78 | 149 | 2.0 | 6.0 | 0.00 | 0.00 | 0.00 | 51 | 1010.4 |
| 20260510094715 | 76 | 140 | 2.0 | 8.0 | 0.00 | 0.00 | 0.00 | 53 | 1010.6 |
| 20260510093603 | 76 | 239 | 4.0 | 8.0 | 0.00 | 0.00 | 0.00 | 54 | 1010.8 |
| 20260510092914 | 75 | 226 | 4.0 | 8.0 | 0.00 | 0.00 | 0.00 | 54 | 1010.7 |
| 20260510092017 | 75 | 122 | 3.0 | 9.0 | 0.00 | 0.00 | 0.00 | 55 | 1010.6 |
| 20260510090904 | 77 | 101 | 2.0 | 7.0 | 0.00 | 0.00 | 0.00 | 52 | 1010.7 |
| 20260510090217 | 76 | 163 | 2.0 | 7.0 | 0.00 | 0.00 | 0.00 | 53 | 1010.7 |
| 20260510085613 | 76 | 174 | 2.0 | 7.0 | 0.00 | 0.00 | 0.00 | 53 | 1010.7 |
| 20260510084503 | 74 | 95 | 3.0 | 7.0 | 0.00 | 0.00 | 0.00 | 55 | 1010.6 |
| 20260510083813 | 75 | 109 | 4.0 | 7.0 | 0.00 | 0.00 | 0.00 | 54 | 1010.7 |
| 20260510082703 | 75 | 140 | 4.0 | 4.0 | 0.00 | 0.00 | 0.00 | 53 | 1010.5 |
| 20260510081804 | 74 | 121 | 3.0 | 7.0 | 0.00 | 0.00 | 0.00 | 54 | 1010.6 |
| 20260510080904 | 75 | 135 | 3.0 | 6.0 | 0.00 | 0.00 | 0.00 | 54 | 1010.5 |
| 20260510080217 | 75 | 119 | 2.0 | 7.0 | 0.00 | 0.00 | 0.00 | 53 | 1010.5 |
| 20260510075614 | 75 | 130 | 2.0 | 6.0 | 0.00 | 0.00 | 0.00 | 52 | 1010.5 |
| 20260510074716 | 75 | 109 | 2.0 | 4.0 | 0.00 | 0.00 | 0.00 | 53 | 1010.1 |
| 20260510073813 | 75 | 227 | 2.0 | 4.0 | 0.00 | 0.00 | 0.00 | 53 | 1010.1 |
| 20260510072703 | 73 | 248 | 3.0 | 7.0 | 0.00 | 0.00 | 0.00 | 55 | 1009.9 |
| 20260510071804 | 73 | 212 | 4.0 | 7.0 | 0.00 | 0.00 | 0.00 | 55 | 1010.1 |
| 20260510070904 | 73 | 195 | 2.0 | 4.0 | 0.00 | 0.00 | 0.00 | 56 | 1010.0 |
| 20260510070218 | 73 | 213 | 1.0 | 4.0 | 0.00 | 0.00 | 0.00 | 56 | 1009.9 |
| 20260510065614 | 72 | 229 | 2.0 | 4.0 | 0.00 | 0.00 | 0.00 | 58 | 1009.8 |
| 20260510064503 | 72 | 218 | 1.0 | 6.0 | 0.00 | 0.00 | 0.00 | 59 | 1010.0 |
| 20260510063814 | 72 | 220 | 3.0 | 6.0 | 0.00 | 0.00 | 0.00 | 60 | 1009.9 |
| 20260510062703 | 71 | 171 | 2.0 | 4.0 | 0.00 | 0.00 | 0.00 | 63 | 1010.1 |
| 20260510062014 | 70 | 258 | 2.0 | 4.0 | 0.00 | 0.00 | 0.00 | 64 | 1009.7 |
| 20260510061116 | 71 | 210 | 1.0 | 4.0 | 0.00 | 0.00 | 0.00 | 63 | 1009.7 |
| 20260510060213 | 71 | 136 | 0.0 | 4.0 | 0.00 | 0.00 | 0.00 | 62 | 1009.8 |
| 20260510055403 | 70 | 253 | 2.0 | 4.0 | 0.00 | 0.00 | 0.00 | 64 | 1009.8 |
| 20260510054717 | 71 | 257 | 0.0 | 2.0 | 0.00 | 0.00 | 0.00 | 62 | 1009.8 |
| 20260510053815 | 68 | 270 | 2.0 | 4.0 | 0.00 | 0.00 | 0.00 | 64 | 1009.7 |
| 20260510052917 | 69 | 270 | 0.0 | 2.0 | 0.00 | 0.00 | 0.00 | 63 | 1009.5 |
| 20260510052014 | 67 | 270 | 0.0 | 4.0 | 0.00 | 0.00 | 0.00 | 67 | 1009.4 |
| 20260510051117 | 66 | 270 | 1.0 | 2.0 | 0.00 | 0.00 | 0.00 | 67 | 1009.3 |
| 20260510050004 | 66 | 270 | 0.0 | 2.0 | 0.00 | 0.00 | 0.00 | 66 | 1009.1 |
| 20260510045616 | 66 | 270 | 1.0 | 2.0 | 0.00 | 0.00 | 0.00 | 66 | 1009.1 |
| 20260510044503 | 65 | 270 | 0.0 | 2.0 | 0.00 | 0.00 | 0.00 | 67 | 1009.3 |
| 20260510043815 | 65 | 270 | 0.0 | 2.0 | 0.00 | 0.00 | 0.00 | 67 | 1009.3 |
| 20260510042913 | 65 | 270 | 0.0 | 2.0 | 0.00 | 0.00 | 0.00 | 68 | 1009.3 |
| 20260510041804 | 64 | 270 | 0.0 | 2.0 | 0.00 | 0.00 | 0.00 | 68 | 1009.5 |
| 20260510041117 | 64 | 270 | 0.0 | 2.0 | 0.00 | 0.00 | 0.00 | 68 | 1009.2 |
| 20260510040215 | 64 | 270 | 0.0 | 2.0 | 0.00 | 0.00 | 0.00 | 68 | 1009.0 |
| 20260510035403 | 64 | 270 | 0.0 | 6.0 | 0.00 | 0.00 | 0.00 | 68 | 1008.9 |
| 20260510034714 | 64 | 270 | 0.0 | 6.0 | 0.00 | 0.00 | 0.00 | 68 | 1008.7 |
| 20260510033816 | 63 | 270 | 0.0 | 2.0 | 0.00 | 0.00 | 0.00 | 69 | 1008.7 |
| 20260510032913 | 63 | 270 | 0.0 | 2.0 | 0.00 | 0.00 | 0.00 | 69 | 1008.6 |
| 20260510032016 | 63 | 270 | 0.0 | 2.0 | 0.00 | 0.00 | 0.00 | 68 | 1008.7 |
| 20260510031113 | 63 | 270 | 0.0 | 2.0 | 0.00 | 0.00 | 0.00 | 68 | 1008.7 |
| 20260510030004 | 63 | 270 | 0.0 | 2.0 | 0.00 | 0.00 | 0.00 | 68 | 1008.8 |
| 20260510025617 | 63 | 270 | 0.0 | 2.0 | 0.00 | 0.00 | 0.00 | 68 | 1008.8 |
| 20260510024714 | 63 | 270 | 0.0 | 2.0 | 0.00 | 0.00 | 0.00 | 68 | 1008.7 |
| 20260510023603 | 63 | 270 | 0.0 | 2.0 | 0.00 | 0.00 | 0.00 | 67 | 1008.3 |
| 20260510022703 | 63 | 270 | 0.0 | 2.0 | 0.00 | 0.00 | 0.00 | 67 | 1008.3 |
| 20260510021804 | 64 | 270 | 0.0 | 2.0 | 0.00 | 0.00 | 0.00 | 66 | 1008.2 |
| 20260510020903 | 64 | 270 | 0.0 | 2.0 | 0.00 | 0.00 | 0.00 | 66 | 1008.3 |
| 20260510020216 | 64 | 270 | 1.0 | 2.0 | 0.00 | 0.00 | 0.00 | 66 | 1008.3 |
| 20260510015403 | 64 | 270 | 0.0 | 2.0 | 0.00 | 0.00 | 0.00 | 66 | 1008.3 |
| 20260510014503 | 64 | 270 | 0.0 | 2.0 | 0.00 | 0.00 | 0.00 | 66 | 1008.4 |
| 20260510013603 | 64 | 270 | 0.0 | 2.0 | 0.00 | 0.00 | 0.00 | 66 | 1008.2 |
| 20260510012703 | 64 | 270 | 1.0 | 2.0 | 0.00 | 0.00 | 0.00 | 65 | 1008.4 |
| 20260510011804 | 64 | 270 | 0.0 | 2.0 | 0.00 | 0.00 | 0.00 | 65 | 1008.4 |
| 20260510010903 | 64 | 0 | 0.0 | 0.0 | 0.00 | 0.00 | 0.00 | 65 | 1008.2 |
| 20260510010217 | 64 | 0 | 0.0 | 0.0 | 0.00 | 0.00 | 0.00 | 65 | 1008.2 |
| 20260510005613 | 64 | 0 | 0.0 | 0.0 | 0.00 | 0.00 | 0.00 | 64 | 1008.2 |
| 20260510004503 | 65 | 270 | 0.0 | 2.0 | 0.00 | 0.00 | 0.00 | 63 | 1008.2 |
| 20260510003603 | 65 | 270 | 1.0 | 2.0 | 0.00 | 0.00 | 0.00 | 64 | 1008.4 |
| 20260510002915 | 64 | 0 | 0.0 | 0.0 | 0.00 | 0.00 | 0.00 | 64 | 1008.1 |
| 20260510002018 | 64 | 270 | 0.0 | 2.0 | 0.00 | 0.00 | 0.00 | 64 | 1008.2 |
| 20260510000904 | 64 | 0 | 0.0 | 0.0 | 0.00 | 0.00 | 0.00 | 64 | 1008.3 |
| 20260510000004 | 65 | 270 | 0.0 | 2.0 | 0.00 | 0.00 | 0.00 | 64 | 1008.5 |
| 20260509235614 | 65 | 270 | 0.0 | 2.0 | 0.00 | 0.00 | 0.00 | 64 | 1008.5 |
| 20260509234716 | 65 | 270 | 0.0 | 2.0 | 0.00 | 0.00 | 0.00 | 63 | 1008.6 |
| 20260509233603 | 65 | 270 | 0.0 | 2.0 | 0.00 | 0.00 | 0.00 | 64 | 1008.3 |
| 20260509232916 | 65 | 270 | 0.0 | 2.0 | 0.00 | 0.00 | 0.00 | 65 | 1008.5 |
| 20260509232013 | 65 | 270 | 0.0 | 2.0 | 0.00 | 0.00 | 0.00 | 65 | 1008.6 |
| 20260509230904 | 65 | 270 | 0.0 | 2.0 | 0.00 | 0.00 | 0.00 | 64 | 1008.5 |
| 20260509230218 | 66 | 270 | 0.0 | 2.0 | 0.00 | 0.00 | 0.00 | 64 | 1008.7 |
| 20260509225403 | 66 | 270 | 0.0 | 2.0 | 0.00 | 0.00 | 0.00 | 63 | 1008.7 |
| 20260509224717 | 66 | 270 | 0.0 | 2.0 | 0.00 | 0.00 | 0.00 | 63 | 1008.8 |
| 20260509223603 | 67 | 270 | 1.0 | 2.0 | 0.00 | 0.00 | 0.00 | 62 | 1008.8 |
| 20260509222703 | 66 | 270 | 0.0 | 2.0 | 0.00 | 0.00 | 0.00 | 63 | 1008.8 |
| 20260509221804 | 66 | 270 | 1.0 | 2.0 | 0.00 | 0.00 | 0.00 | 63 | 1008.6 |
| 20260509221116 | 66 | 270 | 0.0 | 2.0 | 0.00 | 0.00 | 0.00 | 63 | 1008.9 |
| 20260509220213 | 66 | 270 | 0.0 | 2.0 | 0.00 | 0.00 | 0.00 | 63 | 1008.9 |
| 20260509215615 | 66 | 270 | 0.0 | 2.0 | 0.00 | 0.00 | 0.00 | 63 | 1009.1 |
| 20260509214504 | 67 | 270 | 0.0 | 2.0 | 0.00 | 0.00 | 0.00 | 64 | 1008.7 |
| 20260509213815 | 67 | 270 | 0.0 | 2.0 | 0.00 | 0.00 | 0.00 | 64 | 1008.8 |
| 20260509212704 | 67 | 270 | 0.0 | 2.0 | 0.00 | 0.00 | 0.00 | 64 | 1008.6 |
| 20260509212014 | 67 | 270 | 0.0 | 2.0 | 0.00 | 0.00 | 0.00 | 63 | 1008.9 |
| 20260509210903 | 68 | 270 | 2.0 | 2.0 | 0.00 | 0.00 | 0.00 | 63 | 1008.7 |
| 20260509210009 | 68 | 270 | 1.0 | 2.0 | 0.00 | 0.00 | 0.00 | 64 | 1008.8 |
| 20260509205403 | 67 | 270 | 0.0 | 2.0 | 0.00 | 0.00 | 0.00 | 65 | 1008.8 |
| 20260509204503 | 67 | 270 | 1.0 | 2.0 | 0.00 | 0.00 | 0.00 | 65 | 1008.7 |
| 20260509203815 | 67 | 0 | 0.0 | 0.0 | 0.00 | 0.00 | 0.00 | 65 | 1008.8 |
| 20260509202918 | 68 | 264 | 0.0 | 4.0 | 0.00 | 0.00 | 0.00 | 65 | 1008.7 |
| 20260509201804 | 67 | 247 | 0.0 | 2.0 | 0.00 | 0.00 | 0.00 | 65 | 1008.6 |
| 20260509200903 | 67 | 0 | 0.0 | 0.0 | 0.00 | 0.00 | 0.00 | 65 | 1008.7 |
| 20260509200004 | 67 | 247 | 0.0 | 2.0 | 0.00 | 0.00 | 0.00 | 65 | 1008.7 |
| 20260509195403 | 68 | 247 | 0.0 | 2.0 | 0.00 | 0.00 | 0.00 | 65 | 1008.4 |
| 20260509194714 | 68 | 247 | 0.0 | 2.0 | 0.00 | 0.00 | 0.00 | 65 | 1008.6 |
| 20260509193816 | 68 | 247 | 0.0 | 2.0 | 0.00 | 0.00 | 0.00 | 65 | 1008.4 |
| 20260509192913 | 68 | 247 | 0.0 | 2.0 | 0.00 | 0.00 | 0.00 | 64 | 1008.5 |
| 20260509192016 | 68 | 229 | 2.0 | 2.0 | 0.00 | 0.00 | 0.00 | 64 | 1008.5 |
| 20260509190903 | 68 | 170 | 1.0 | 2.0 | 0.00 | 0.00 | 0.00 | 64 | 1008.5 |
| 20260509190215 | 68 | 112 | 0.0 | 2.0 | 0.00 | 0.00 | 0.00 | 64 | 1008.6 |
| 20260509185617 | 68 | 113 | 0.0 | 2.0 | 0.00 | 0.00 | 0.00 | 64 | 1008.4 |
| 20260509184714 | 68 | 98 | 2.0 | 4.0 | 0.00 | 0.00 | 0.00 | 64 | 1008.5 |
| 20260509183603 | 68 | 141 | 2.0 | 4.0 | 0.00 | 0.00 | 0.00 | 64 | 1008.2 |
| 20260509182704 | 68 | 119 | 2.0 | 4.0 | 0.00 | 0.00 | 0.00 | 64 | 1008.2 |
| 20260509181804 | 68 | 239 | 1.0 | 6.0 | 0.00 | 0.00 | 0.00 | 64 | 1008.1 |
| 20260509181114 | 68 | 253 | 4.0 | 6.0 | 0.00 | 0.00 | 0.00 | 64 | 1008.1 |
| 20260509180216 | 68 | 209 | 1.0 | 4.0 | 0.00 | 0.00 | 0.00 | 63 | 1007.9 |
| 20260509175403 | 69 | 232 | 2.0 | 6.0 | 0.00 | 0.00 | 0.00 | 63 | 1007.9 |
| 20260509174503 | 69 | 202 | 2.0 | 8.0 | 0.00 | 0.00 | 0.00 | 62 | 1007.8 |
| 20260509173603 | 69 | 240 | 3.0 | 8.0 | 0.00 | 0.00 | 0.00 | 62 | 1007.6 |
| 20260509172704 | 69 | 253 | 2.0 | 8.0 | 0.00 | 0.00 | 0.00 | 61 | 1007.7 |
| 20260509171804 | 69 | 257 | 4.0 | 7.0 | 0.00 | 0.00 | 0.00 | 60 | 1007.4 |
| 20260509170903 | 70 | 277 | 5.0 | 11.0 | 0.00 | 0.00 | 0.00 | 58 | 1007.4 |
| 20260509170217 | 70 | 269 | 4.0 | 9.0 | 0.00 | 0.00 | 0.00 | 57 | 1007.5 |
| 20260509165403 | 70 | 263 | 4.0 | 11.0 | 0.00 | 0.00 | 0.00 | 57 | 1007.5 |
| 20260509164715 | 71 | 255 | 2.0 | 11.0 | 0.00 | 0.00 | 0.00 | 55 | 1007.6 |
| 20260509163813 | 71 | 257 | 4.0 | 11.0 | 0.00 | 0.00 | 0.00 | 54 | 1007.6 |
| 20260509162915 | 71 | 259 | 8.0 | 11.0 | 0.00 | 0.00 | 0.00 | 53 | 1007.5 |
| 20260509162018 | 72 | 227 | 4.0 | 11.0 | 0.00 | 0.00 | 0.00 | 51 | 1007.5 |
| 20260509161115 | 73 | 249 | 2.0 | 11.0 | 0.00 | 0.00 | 0.00 | 49 | 1007.3 |
| 20260509160004 | 73 | 243 | 2.0 | 11.0 | 0.00 | 0.00 | 0.00 | 48 | 1007.3 |
| 20260509155614 | 73 | 240 | 7.0 | 13.0 | 0.00 | 0.00 | 0.00 | 47 | 1007.2 |
| 20260509154503 | 73 | 234 | 3.0 | 13.0 | 0.00 | 0.00 | 0.00 | 47 | 1007.3 |
| 20260509153603 | 74 | 233 | 2.0 | 13.0 | 0.00 | 0.00 | 0.00 | 45 | 1007.3 |
| 20260509152704 | 75 | 250 | 5.0 | 11.0 | 0.00 | 0.00 | 0.00 | 43 | 1007.2 |
| 20260509152013 | 76 | 245 | 2.0 | 11.0 | 0.00 | 0.00 | 0.00 | 42 | 1007.0 |
| 20260509151115 | 75 | 240 | 4.0 | 13.0 | 0.00 | 0.00 | 0.00 | 43 | 1007.3 |
| 20260509150004 | 75 | 243 | 4.0 | 13.0 | 0.00 | 0.00 | 0.00 | 40 | 1007.1 |
| 20260509145403 | 75 | 262 | 4.0 | 14.0 | 0.00 | 0.00 | 0.00 | 40 | 1007.4 |
| 20260509144717 | 75 | 246 | 3.0 | 16.0 | 0.00 | 0.00 | 0.00 | 39 | 1007.4 |
| 20260509143814 | 76 | 242 | 2.0 | 14.0 | 0.00 | 0.00 | 0.00 | 38 | 1007.3 |
| 20260509142704 | 76 | 232 | 4.0 | 13.0 | 0.00 | 0.00 | 0.00 | 37 | 1007.2 |
| 20260509142014 | 77 | 211 | 4.0 | 13.0 | 0.00 | 0.00 | 0.00 | 35 | 1007.3 |
| 20260509141116 | 77 | 107 | 4.0 | 13.0 | 0.00 | 0.00 | 0.00 | 34 | 1007.4 |
| 20260509140213 | 78 | 191 | 4.0 | 11.0 | 0.00 | 0.00 | 0.00 | 33 | 1007.4 |
| 20260509135403 | 79 | 139 | 3.0 | 11.0 | 0.00 | 0.00 | 0.00 | 31 | 1007.5 |
| 20260509134717 | 78 | 133 | 5.0 | 11.0 | 0.00 | 0.00 | 0.00 | 33 | 1007.1 |
| 20260509133815 | 77 | 130 | 5.0 | 13.0 | 0.00 | 0.00 | 0.00 | 34 | 1007.3 |
| 20260509132917 | 77 | 109 | 6.0 | 11.0 | 0.00 | 0.00 | 0.00 | 33 | 1007.3 |
| 20260509131804 | 78 | 124 | 4.0 | 14.0 | 0.00 | 0.00 | 0.00 | 32 | 1007.5 |
| 20260509131117 | 78 | 132 | 5.0 | 13.0 | 0.00 | 0.00 | 0.00 | 30 | 1007.7 |
| 20260509130004 | 78 | 167 | 5.0 | 15.0 | 0.00 | 0.00 | 0.00 | 33 | 1007.4 |